Time;durP1;ratioP1;P1;durP2;ratioP2;P2;SDS_P1;SDS_P2;PMS_P1;PMS_P2;Temp;Humidity;BMP_temperature;BMP_pressure;BME280_temperature;BME280_humidity;BME280_pressure;Samples;Min_cycle;Max_cycle;Signal;HPM_P1;HPM_P2
2021/12/29 00:02:21;;;;;;;26.13;12.77;;;7.40;99.90;;;;;;4989670;28;20053;-67
2021/12/29 00:04:47;;;;;;;26.58;13.98;;;7.40;99.90;;;;;;4989560;28;20509;-67
2021/12/29 00:07:12;;;;;;;26.67;13.30;;;7.40;99.90;;;;;;4987698;28;20069;-67
2021/12/29 00:09:40;;;;;;;20.65;12.40;;;7.50;99.90;;;;;;4987581;28;20139;-67
2021/12/29 00:12:08;;;;;;;22.38;12.93;;;7.30;99.90;;;;;;4989672;28;20542;-67
2021/12/29 00:14:35;;;;;;;22.48;12.60;;;7.30;99.90;;;;;;4987653;28;20042;-67
2021/12/29 00:17:01;;;;;;;19.63;10.27;;;7.30;99.90;;;;;;4989518;28;20061;-67
2021/12/29 00:19:27;;;;;;;17.48;10.20;;;7.30;99.90;;;;;;4989394;28;20038;-67
2021/12/29 00:21:52;;;;;;;15.85;10.40;;;7.30;99.90;;;;;;4988717;28;20054;-67
2021/12/29 00:24:18;;;;;;;16.88;9.48;;;8.20;99.90;;;;;;4988365;28;20118;-67
2021/12/29 00:26:43;;;;;;;16.15;9.07;;;7.20;99.90;;;;;;4989833;28;20476;-67
2021/12/29 00:29:09;;;;;;;15.02;8.73;;;7.20;99.90;;;;;;4987335;28;20068;-67
2021/12/29 00:31:35;;;;;;;13.80;8.88;;;7.20;99.90;;;;;;4987636;28;20050;-67
2021/12/29 00:34:00;;;;;;;16.85;9.63;;;7.20;99.90;;;;;;4989032;28;20046;-67
2021/12/29 00:36:26;;;;;;;15.48;9.40;;;7.20;99.90;;;;;;4988856;28;20509;-67
2021/12/29 00:38:53;;;;;;;17.42;10.38;;;7.20;99.90;;;;;;4989978;28;20042;-67
2021/12/29 00:41:19;;;;;;;18.50;10.90;;;7.20;99.90;;;;;;4989656;28;20061;-67
2021/12/29 00:43:45;;;;;;;17.90;10.88;;;7.20;99.90;;;;;;4987750;28;20358;-67
2021/12/29 00:46:13;;;;;;;20.15;10.88;;;7.10;99.90;;;;;;4975982;28;20058;-67
2021/12/29 00:48:42;;;;;;;19.75;10.45;;;7.10;99.90;;;;;;4989336;28;20047;-67
2021/12/29 00:51:09;;;;;;;18.90;10.00;;;7.10;99.90;;;;;;4988587;28;20118;-67
2021/12/29 00:53:34;;;;;;;24.88;11.02;;;7.20;99.90;;;;;;4988188;28;20038;-67
2021/12/29 00:56:01;;;;;;;23.77;11.63;;;7.10;99.90;;;;;;4988298;28;20602;-67
2021/12/29 00:58:26;;;;;;;20.42;10.40;;;7.20;99.90;;;;;;4986606;28;20039;-67
2021/12/29 01:00:53;;;;;;;22.83;10.50;;;7.20;99.90;;;;;;4988744;28;20450;-67
2021/12/29 01:03:19;;;;;;;25.15;11.38;;;7.20;99.90;;;;;;4986283;28;20058;-67
2021/12/29 01:05:45;;;;;;;25.48;10.75;;;7.10;99.90;;;;;;4988065;28;20057;-67
2021/12/29 01:08:11;;;;;;;26.55;11.70;;;7.20;99.90;;;;;;4988705;28;20133;-67
2021/12/29 01:10:39;;;;;;;30.33;12.05;;;7.20;99.90;;;;;;4987477;28;20038;-67
2021/12/29 01:13:07;;;;;;;33.90;12.07;;;7.20;99.90;;;;;;4988292;28;20046;-68
2021/12/29 01:15:56;;;;;;;28.42;12.15;;;7.20;99.90;;;;;;4983914;28;20065;-67
2021/12/29 01:18:23;;;;;;;33.45;12.38;;;7.20;99.90;;;;;;4986694;28;20376;-67
2021/12/29 01:20:49;;;;;;;29.60;12.85;;;7.20;99.90;;;;;;4988390;28;20458;-68
2021/12/29 01:23:15;;;;;;;33.63;12.88;;;7.30;99.90;;;;;;4981797;28;20051;-67
2021/12/29 01:25:41;;;;;;;30.63;13.52;;;7.30;99.90;;;;;;4982925;28;20116;-67
2021/12/29 01:28:07;;;;;;;36.50;14.07;;;7.30;99.90;;;;;;4986336;28;20487;-67
2021/12/29 01:30:33;;;;;;;31.80;14.60;;;7.30;99.90;;;;;;4987952;28;20054;-67
2021/12/29 01:33:06;;;;;;;31.70;14.50;;;7.40;99.90;;;;;;4987829;28;20074;-67
2021/12/29 01:35:32;;;;;;;30.30;14.32;;;7.40;99.90;;;;;;4988320;28;20085;-67
2021/12/29 01:37:58;;;;;;;32.80;14.88;;;7.40;99.90;;;;;;4986636;28;20066;-67
2021/12/29 01:40:24;;;;;;;32.05;14.98;;;7.40;99.90;;;;;;4987320;28;20422;-67
2021/12/29 01:42:50;;;;;;;30.50;14.27;;;7.40;99.90;;;;;;4987197;28;20039;-67
2021/12/29 01:45:16;;;;;;;35.45;15.65;;;7.40;99.90;;;;;;4986539;28;20031;-68
2021/12/29 01:47:41;;;;;;;38.20;16.27;;;7.50;99.90;;;;;;4987810;28;20237;-67
2021/12/29 01:50:10;;;;;;;45.13;16.85;;;7.50;99.90;;;;;;4970258;28;20129;-67
2021/12/29 01:52:39;;;;;;;37.85;15.57;;;7.50;99.90;;;;;;4987612;28;20448;-67
2021/12/29 01:55:07;;;;;;;48.30;16.70;;;7.50;99.90;;;;;;4989614;28;20093;-67
2021/12/29 01:57:33;;;;;;;45.45;17.38;;;7.50;99.90;;;;;;4991306;28;20094;-67
2021/12/29 02:00:00;;;;;;;48.42;17.30;;;7.50;99.90;;;;;;4990307;28;20455;-67
2021/12/29 02:02:26;;;;;;;51.60;16.88;;;7.40;99.90;;;;;;4990724;28;20042;-67
2021/12/29 02:04:51;;;;;;;47.63;17.73;;;7.50;99.90;;;;;;4992194;28;20053;-67
2021/12/29 02:07:17;;;;;;;48.67;17.33;;;7.50;99.90;;;;;;4990523;28;20475;-67
2021/12/29 02:09:43;;;;;;;51.92;16.83;;;7.60;99.90;;;;;;4991038;28;20142;-67
2021/12/29 02:12:13;;;;;;;39.22;15.35;;;7.50;99.90;;;;;;4988172;28;20051;-67
2021/12/29 02:14:39;;;;;;;44.63;16.92;;;7.50;99.90;;;;;;4964626;28;20042;-67
2021/12/29 02:17:06;;;;;;;48.42;16.23;;;7.50;99.90;;;;;;4992462;28;20460;-67
2021/12/29 02:19:32;;;;;;;48.88;17.15;;;7.50;99.90;;;;;;4992518;28;20376;-67
2021/12/29 02:22:07;;;;;;;43.47;17.25;;;7.50;99.90;;;;;;4991927;28;20054;-66
2021/12/29 02:24:39;;;;;;;42.00;16.60;;;7.50;99.90;;;;;;4991319;28;20046;-66
2021/12/29 02:27:09;;;;;;;42.17;16.17;;;7.50;99.90;;;;;;4991588;28;20062;-67
2021/12/29 02:29:36;;;;;;;39.97;16.25;;;7.50;99.90;;;;;;4988094;28;20051;-67
2021/12/29 02:32:03;;;;;;;36.35;15.90;;;7.50;99.90;;;;;;4990681;28;20054;-67
2021/12/29 02:34:28;;;;;;;34.95;14.88;;;7.50;99.90;;;;;;4990338;28;20050;-66
2021/12/29 02:36:57;;;;;;;27.63;11.80;;;7.40;99.90;;;;;;4992383;28;20073;-66
2021/12/29 02:39:23;;;;;;;26.25;11.43;;;7.50;99.90;;;;;;4990316;28;20062;-66
2021/12/29 02:41:52;;;;;;;25.30;10.88;;;7.60;99.90;;;;;;4991480;28;20388;-66
2021/12/29 02:44:25;;;;;;;27.48;11.27;;;7.60;99.90;;;;;;4983613;28;20054;-67
2021/12/29 02:46:52;;;;;;;27.30;10.63;;;7.60;99.90;;;;;;4977519;28;20068;-67
2021/12/29 02:49:19;;;;;;;22.98;10.27;;;7.60;99.90;;;;;;4988679;28;20074;-67
2021/12/29 02:51:45;;;;;;;25.15;10.52;;;7.50;99.90;;;;;;4991413;28;20046;-67
2021/12/29 02:54:11;;;;;;;24.13;9.75;;;7.60;99.90;;;;;;4989179;28;20046;-66
2021/12/29 02:56:36;;;;;;;26.13;10.13;;;7.60;99.90;;;;;;4990399;28;20054;-67
2021/12/29 02:59:03;;;;;;;26.30;10.60;;;7.60;99.90;;;;;;4989883;28;20038;-67
2021/12/29 03:01:29;;;;;;;30.38;10.95;;;7.60;99.90;;;;;;4991015;28;20121;-66
2021/12/29 03:03:57;;;;;;;33.67;11.70;;;7.60;99.90;;;;;;4988854;28;20124;-67
2021/12/29 03:06:23;;;;;;;32.63;11.95;;;7.60;99.90;;;;;;4989176;28;20082;-66
2021/12/29 03:08:49;;;;;;;29.30;11.50;;;7.60;99.90;;;;;;4989197;28;20030;-66
2021/12/29 03:11:15;;;;;;;32.83;11.38;;;7.60;99.90;;;;;;4988477;28;20042;-67
2021/12/29 03:13:41;;;;;;;30.35;11.18;;;7.60;99.90;;;;;;4990634;28;20503;-67
2021/12/29 03:16:08;;;;;;;29.88;11.32;;;7.60;99.90;;;;;;4990183;28;20149;-67
2021/12/29 03:18:34;;;;;;;29.50;11.90;;;7.60;99.90;;;;;;4989785;28;20039;-67
2021/12/29 03:21:00;;;;;;;30.27;12.13;;;7.60;99.90;;;;;;4989264;28;20089;-67
2021/12/29 03:23:26;;;;;;;33.80;12.00;;;7.60;99.90;;;;;;4989413;28;20520;-67
2021/12/29 03:25:52;;;;;;;33.72;12.52;;;7.70;99.90;;;;;;4989706;28;20093;-67
2021/12/29 03:28:20;;;;;;;34.80;12.20;;;7.60;99.90;;;;;;4990346;28;20085;-67
2021/12/29 03:30:49;;;;;;;33.65;13.07;;;7.70;99.90;;;;;;4990062;28;20057;-68
2021/12/29 03:33:15;;;;;;;30.00;12.93;;;7.70;99.90;;;;;;4989974;28;20446;-67
2021/12/29 03:35:51;;;;;;;30.50;12.88;;;7.70;99.90;;;;;;4989261;28;20847;-67
2021/12/29 03:38:20;;;;;;;33.15;12.50;;;7.70;99.90;;;;;;4988851;28;20426;-67
2021/12/29 03:40:46;;;;;;;34.85;14.18;;;7.70;99.90;;;;;;4988630;28;20061;-67
2021/12/29 03:43:12;;;;;;;35.80;13.40;;;7.70;99.90;;;;;;4989733;28;20038;-67
2021/12/29 03:45:41;;;;;;;33.30;14.13;;;7.70;99.90;;;;;;4988044;28;20126;-67
2021/12/29 03:48:09;;;;;;;32.22;14.32;;;7.70;99.90;;;;;;4989852;28;20084;-67
2021/12/29 03:50:35;;;;;;;37.38;15.20;;;7.70;99.90;;;;;;4989375;28;20117;-67
2021/12/29 03:53:02;;;;;;;34.95;14.73;;;7.70;99.90;;;;;;4987532;28;20074;-67
2021/12/29 03:55:27;;;;;;;37.10;15.18;;;7.70;99.90;;;;;;4988771;28;20048;-67
2021/12/29 03:57:53;;;;;;;36.38;15.65;;;7.70;99.90;;;;;;4989939;28;20547;-67
2021/12/29 04:00:20;;;;;;;35.30;14.65;;;7.70;99.90;;;;;;4979666;28;20082;-67
2021/12/29 04:02:46;;;;;;;38.63;15.93;;;7.70;99.90;;;;;;4989188;28;20114;-67
2021/12/29 04:05:19;;;;;;;37.35;15.70;;;7.70;99.90;;;;;;4988261;28;20045;-67
2021/12/29 04:07:45;;;;;;;36.35;14.55;;;7.70;99.90;;;;;;4987870;28;20418;-67
2021/12/29 04:10:11;;;;;;;40.10;15.52;;;7.70;99.90;;;;;;4989292;28;20129;-67
2021/12/29 04:12:39;;;;;;;41.92;15.65;;;7.80;99.90;;;;;;4989041;28;20038;-67
2021/12/29 04:15:06;;;;;;;34.58;15.40;;;7.70;99.90;;;;;;4988307;28;20050;-67
2021/12/29 04:17:38;;;;;;;48.35;15.45;;;7.70;99.90;;;;;;4971422;28;20153;-67
2021/12/29 04:23:02;;;;;;;36.15;15.82;;;7.80;99.90;;;;;;4988629;28;20168;-67
2021/12/29 04:25:30;;;;;;;34.20;14.50;;;7.80;99.90;;;;;;4988570;28;20113;-67
2021/12/29 04:27:57;;;;;;;43.67;15.95;;;7.80;99.90;;;;;;4988487;28;20048;-67
2021/12/29 04:30:24;;;;;;;36.92;15.15;;;7.80;99.90;;;;;;4987296;28;20122;-67
2021/12/29 04:32:52;;;;;;;38.40;14.77;;;7.80;99.90;;;;;;4989768;28;20065;-67
2021/12/29 04:35:19;;;;;;;34.25;15.82;;;7.80;99.90;;;;;;4988182;28;20042;-67
2021/12/29 04:37:44;;;;;;;34.30;15.70;;;7.80;99.90;;;;;;4988117;28;20077;-67
2021/12/29 04:40:10;;;;;;;35.35;15.45;;;7.80;99.90;;;;;;4989517;28;20074;-67
2021/12/29 04:42:36;;;;;;;36.38;16.45;;;7.80;99.90;;;;;;4991613;28;20035;-67
2021/12/29 04:45:03;;;;;;;36.05;18.10;;;7.80;99.90;;;;;;4984571;28;20038;-67
2021/12/29 04:47:30;;;;;;;37.40;17.02;;;7.80;99.90;;;;;;4988535;28;20437;-67
2021/12/29 04:50:00;;;;;;;37.10;16.83;;;7.80;99.90;;;;;;4988641;28;20141;-67
2021/12/29 04:52:27;;;;;;;39.97;18.45;;;7.90;99.90;;;;;;4988562;28;20077;-67
2021/12/29 04:54:52;;;;;;;39.05;17.15;;;7.90;99.90;;;;;;4987680;28;20443;-67
2021/12/29 04:57:18;;;;;;;39.30;17.02;;;7.80;99.90;;;;;;4988819;28;20129;-67
2021/12/29 04:59:44;;;;;;;35.72;17.30;;;7.90;99.90;;;;;;4987925;28;20050;-67
2021/12/29 05:02:10;;;;;;;42.97;18.67;;;7.80;99.90;;;;;;4987570;28;20053;-67
2021/12/29 05:04:45;;;;;;;39.53;17.25;;;7.80;99.90;;;;;;4987685;28;20058;-67
2021/12/29 05:09:56;;;;;;;43.13;18.48;;;7.80;99.90;;;;;;4987712;28;20292;-67
2021/12/29 05:12:21;;;;;;;34.60;17.05;;;7.80;99.90;;;;;;4987137;28;20495;-67
2021/12/29 05:14:47;;;;;;;41.08;18.30;;;7.80;99.90;;;;;;4988498;28;20041;-67
2021/12/29 05:17:12;;;;;;;37.47;16.90;;;7.80;99.90;;;;;;4990769;28;20436;-67
2021/12/29 05:19:38;;;;;;;39.22;17.30;;;7.80;99.90;;;;;;4990249;28;20169;-67
2021/12/29 05:22:04;;;;;;;42.13;17.67;;;7.80;99.90;;;;;;4989767;28;20050;-67
2021/12/29 05:24:30;;;;;;;34.30;15.82;;;7.90;99.90;;;;;;4985661;28;20062;-67
2021/12/29 05:26:55;;;;;;;36.22;16.42;;;7.90;99.90;;;;;;4989172;28;20189;-67
2021/12/29 05:29:21;;;;;;;41.97;17.10;;;7.90;99.90;;;;;;4987623;28;20059;-67
2021/12/29 05:31:47;;;;;;;39.70;17.35;;;7.90;99.90;;;;;;4992859;28;20046;-67
2021/12/29 05:34:12;;;;;;;38.42;16.17;;;7.80;99.90;;;;;;4992225;28;20429;-67
2021/12/29 05:36:38;;;;;;;40.63;17.88;;;7.90;99.90;;;;;;4992335;28;20073;-67
2021/12/29 05:39:04;;;;;;;37.72;17.55;;;7.00;99.90;;;;;;4990014;28;20164;-67
2021/12/29 05:41:29;;;;;;;41.03;18.45;;;7.90;99.90;;;;;;4991897;28;20487;-67
2021/12/29 05:43:58;;;;;;;39.30;16.70;;;7.90;99.90;;;;;;4991840;28;20042;-67
2021/12/29 05:46:23;;;;;;;34.88;17.83;;;7.90;99.90;;;;;;4990240;28;20038;-67
2021/12/29 05:48:49;;;;;;;42.88;18.20;;;7.90;99.90;;;;;;4991800;28;20386;-67
2021/12/29 05:51:15;;;;;;;38.35;17.30;;;7.90;99.90;;;;;;4992485;28;20487;-67
2021/12/29 05:53:41;;;;;;;37.05;17.35;;;7.90;99.90;;;;;;4993842;28;20128;-67
2021/12/29 05:56:07;;;;;;;36.67;16.30;;;7.90;99.90;;;;;;4994393;28;20057;-67
2021/12/29 05:58:34;;;;;;;42.10;16.35;;;7.90;99.90;;;;;;4988237;28;20114;-67
2021/12/29 06:01:00;;;;;;;33.72;17.00;;;8.00;99.90;;;;;;4988770;28;20042;-67
2021/12/29 06:03:26;;;;;;;33.70;17.55;;;8.00;99.90;;;;;;4974246;28;20601;-67
2021/12/29 06:05:51;;;;;;;42.63;17.98;;;8.00;99.90;;;;;;4991051;28;20504;-67
2021/12/29 06:08:17;;;;;;;37.30;17.33;;;7.90;99.90;;;;;;4990225;28;20043;-67
2021/12/29 06:10:43;;;;;;;37.10;18.25;;;7.90;99.90;;;;;;4991871;28;20406;-67
2021/12/29 06:13:08;;;;;;;36.03;17.00;;;7.90;99.90;;;;;;4991054;28;20121;-67
2021/12/29 06:15:34;;;;;;;29.85;16.33;;;8.60;99.90;;;;;;4991104;28;20402;-67
2021/12/29 06:17:59;;;;;;;34.60;17.30;;;8.80;99.90;;;;;;4991775;28;20038;-67
2021/12/29 06:20:25;;;;;;;35.17;18.00;;;8.00;99.90;;;;;;4990727;28;20055;-67
2021/12/29 06:22:51;;;;;;;33.55;16.25;;;8.00;99.90;;;;;;4991750;28;20364;-67
2021/12/29 06:25:18;;;;;;;35.67;15.88;;;8.00;99.90;;;;;;4990494;28;20052;-67
2021/12/29 06:27:44;;;;;;;35.35;16.30;;;8.00;99.90;;;;;;4991082;28;20097;-67
2021/12/29 06:30:12;;;;;;;32.17;16.67;;;8.00;99.90;;;;;;4990965;28;20041;-67
2021/12/29 06:32:40;;;;;;;36.85;16.88;;;8.00;99.90;;;;;;4991667;28;20133;-67
2021/12/29 06:35:07;;;;;;;38.67;18.40;;;8.10;99.90;;;;;;4990626;28;20078;-67
2021/12/29 06:37:33;;;;;;;42.60;17.80;;;8.00;99.90;;;;;;4990661;28;20125;-67
2021/12/29 06:39:59;;;;;;;37.05;16.88;;;8.00;99.90;;;;;;4990028;28;20161;-67
2021/12/29 06:42:25;;;;;;;33.83;16.70;;;8.00;99.90;;;;;;4989042;28;20113;-68
2021/12/29 06:44:51;;;;;;;39.83;17.73;;;8.10;99.90;;;;;;4984011;28;20085;-67
2021/12/29 06:47:17;;;;;;;43.50;17.65;;;8.00;99.90;;;;;;4990744;28;20107;-67
2021/12/29 06:50:02;;;;;;;43.38;18.52;;;8.10;99.90;;;;;;4990756;28;20042;-67
2021/12/29 06:52:27;;;;;;;42.53;16.95;;;8.00;99.90;;;;;;4990326;28;20054;-67
2021/12/29 06:54:53;;;;;;;45.35;18.50;;;8.00;99.90;;;;;;4990430;28;20043;-68
2021/12/29 06:57:19;;;;;;;37.20;17.65;;;8.00;99.90;;;;;;4989357;28;20500;-68
2021/12/29 06:59:44;;;;;;;40.38;16.15;;;8.20;99.90;;;;;;4990113;28;20042;-68
2021/12/29 07:02:11;;;;;;;46.03;18.33;;;8.90;99.90;;;;;;4990523;28;20054;-68
2021/12/29 07:04:37;;;;;;;45.70;18.35;;;8.00;99.90;;;;;;4989069;28;20134;-68
2021/12/29 07:07:03;;;;;;;42.58;17.45;;;8.20;99.90;;;;;;4991029;28;20436;-68
2021/12/29 07:09:29;;;;;;;46.55;17.77;;;8.00;99.90;;;;;;4988924;28;20082;-68
2021/12/29 07:11:55;;;;;;;42.80;17.73;;;8.10;99.90;;;;;;4973937;28;20085;-68
2021/12/29 07:14:21;;;;;;;46.92;16.40;;;8.00;99.90;;;;;;4988986;28;20320;-68
2021/12/29 07:16:48;;;;;;;50.05;18.45;;;8.00;99.90;;;;;;4988996;28;20069;-68
2021/12/29 07:19:15;;;;;;;46.90;17.77;;;8.00;99.90;;;;;;4988788;28;20375;-68
2021/12/29 07:21:41;;;;;;;51.75;17.73;;;8.00;99.90;;;;;;4991073;28;20404;-68
2021/12/29 07:24:07;;;;;;;49.58;18.23;;;8.60;99.90;;;;;;4987404;28;20050;-68
2021/12/29 07:26:34;;;;;;;46.60;17.65;;;8.00;99.90;;;;;;4990145;28;20137;-68
2021/12/29 07:29:00;;;;;;;48.75;17.88;;;8.10;99.90;;;;;;4989705;28;20536;-68
2021/12/29 07:31:27;;;;;;;52.55;18.00;;;8.00;99.90;;;;;;4986883;28;20078;-66
2021/12/29 07:33:52;;;;;;;56.75;19.88;;;8.10;99.90;;;;;;4989055;28;20541;-66
2021/12/29 07:36:18;;;;;;;56.33;18.75;;;8.80;99.90;;;;;;4984838;28;20074;-69
2021/12/29 07:38:44;;;;;;;60.33;18.00;;;8.10;99.90;;;;;;4986799;28;20038;-66
2021/12/29 07:41:11;;;;;;;54.55;18.60;;;8.10;99.90;;;;;;4990065;28;20872;-67
2021/12/29 07:43:37;;;;;;;59.90;19.35;;;8.10;99.90;;;;;;4989235;28;20053;-67
2021/12/29 07:46:05;;;;;;;49.88;19.42;;;8.10;99.90;;;;;;4989014;28;20053;-69
2021/12/29 07:48:31;;;;;;;48.58;17.77;;;8.10;99.90;;;;;;4988986;28;20478;-66
2021/12/29 07:50:58;;;;;;;47.00;18.27;;;8.10;99.90;;;;;;4990041;28;20086;-69
2021/12/29 07:53:23;;;;;;;52.22;18.55;;;8.10;99.90;;;;;;4989099;28;20049;-66
2021/12/29 07:55:49;;;;;;;48.95;17.80;;;8.10;99.90;;;;;;4988614;28;20046;-66
2021/12/29 07:58:15;;;;;;;47.25;17.58;;;8.10;99.90;;;;;;4968431;28;20435;-67
2021/12/29 08:00:45;;;;;;;53.90;18.88;;;8.70;99.90;;;;;;4988272;28;20062;-67
2021/12/29 08:03:12;;;;;;;52.75;16.48;;;8.10;99.90;;;;;;4990760;28;20069;-67
2021/12/29 08:05:39;;;;;;;44.03;17.00;;;8.80;99.90;;;;;;4989119;28;20133;-67
2021/12/29 08:08:06;;;;;;;47.63;17.73;;;8.10;99.90;;;;;;4990049;28;20085;-67
2021/12/29 08:10:34;;;;;;;42.05;16.58;;;8.10;99.90;;;;;;4987592;28;20751;-66
2021/12/29 08:13:00;;;;;;;41.88;16.27;;;8.10;99.90;;;;;;4984526;28;20046;-68
2021/12/29 08:15:26;;;;;;;39.30;15.80;;;8.10;99.90;;;;;;4969582;28;20042;-68
2021/12/29 08:17:51;;;;;;;43.58;16.30;;;8.10;99.90;;;;;;4967705;28;20054;-68
2021/12/29 08:20:17;;;;;;;39.17;14.48;;;8.10;99.90;;;;;;4972091;28;20069;-69
2021/12/29 08:22:43;;;;;;;37.65;14.63;;;8.70;99.90;;;;;;4972101;28;20414;-68
2021/12/29 08:25:09;;;;;;;37.10;14.98;;;8.10;99.90;;;;;;4988813;28;20049;-68
2021/12/29 08:27:35;;;;;;;39.88;15.05;;;8.20;99.90;;;;;;4989363;28;20050;-68
2021/12/29 08:30:00;;;;;;;33.53;14.63;;;8.20;99.90;;;;;;4971156;28;20391;-68
2021/12/29 08:32:26;;;;;;;31.60;15.38;;;8.20;99.90;;;;;;4987279;28;20096;-66
2021/12/29 08:34:53;;;;;;;36.40;14.02;;;8.20;99.90;;;;;;4989612;28;20043;-67
2021/12/29 08:37:19;;;;;;;29.48;13.43;;;8.20;99.90;;;;;;4987571;28;20133;-67
2021/12/29 08:39:44;;;;;;;38.17;13.95;;;8.20;99.90;;;;;;4988282;28;20129;-66
2021/12/29 08:42:11;;;;;;;40.33;15.02;;;8.20;99.90;;;;;;4990457;28;20148;-66
2021/12/29 08:44:37;;;;;;;28.08;13.65;;;8.20;99.90;;;;;;4990276;28;20053;-67
2021/12/29 08:47:03;;;;;;;39.50;14.40;;;8.20;99.90;;;;;;4991786;28;20092;-66
2021/12/29 08:49:29;;;;;;;37.60;14.95;;;8.20;99.90;;;;;;4989517;28;20053;-66
2021/12/29 08:51:56;;;;;;;43.10;15.52;;;8.30;99.90;;;;;;4991304;28;20047;-66
2021/12/29 08:54:22;;;;;;;48.33;14.95;;;8.20;99.90;;;;;;4986890;28;20042;-66
2021/12/29 08:56:48;;;;;;;37.80;16.00;;;8.30;99.90;;;;;;4988589;28;20080;-67
2021/12/29 08:59:14;;;;;;;35.65;15.15;;;8.30;99.90;;;;;;4987608;28;20524;-67
2021/12/29 09:01:40;;;;;;;41.80;15.18;;;8.30;99.90;;;;;;4988850;28;20399;-66
2021/12/29 09:04:07;;;;;;;45.17;15.63;;;8.30;99.90;;;;;;4988052;28;20042;-67
2021/12/29 09:06:34;;;;;;;39.05;13.77;;;8.30;99.90;;;;;;4989409;28;20046;-66
2021/12/29 09:08:59;;;;;;;35.72;14.38;;;8.30;99.90;;;;;;4985723;28;20081;-66
2021/12/29 09:11:25;;;;;;;38.10;15.10;;;8.30;99.90;;;;;;4987991;28;20050;-67
2021/12/29 09:13:53;;;;;;;46.20;14.68;;;8.30;99.90;;;;;;4988374;28;20046;-66
2021/12/29 09:16:19;;;;;;;43.28;15.38;;;8.30;99.90;;;;;;4987928;28;20093;-67
2021/12/29 09:18:44;;;;;;;38.90;13.85;;;8.80;99.90;;;;;;4986935;28;20090;-66
2021/12/29 09:21:14;;;;;;;38.83;14.38;;;8.30;99.90;;;;;;4987667;28;20062;-66
2021/12/29 09:23:40;;;;;;;45.38;14.40;;;8.30;99.90;;;;;;4987684;28;20089;-66
2021/12/29 09:26:07;;;;;;;69.70;15.73;;;8.30;99.90;;;;;;4988102;28;20363;-67
2021/12/29 09:28:33;;;;;;;55.20;15.73;;;8.30;99.90;;;;;;4986708;28;20491;-66
2021/12/29 09:30:59;;;;;;;54.97;14.80;;;9.40;99.90;;;;;;4988464;28;20042;-66
2021/12/29 09:33:25;;;;;;;44.05;12.57;;;8.30;99.90;;;;;;4988381;28;20046;-67
2021/12/29 09:35:55;;;;;;;53.47;13.27;;;8.30;99.90;;;;;;4988072;28;20450;-65
2021/12/29 09:38:21;;;;;;;41.72;12.55;;;8.40;99.90;;;;;;4986965;28;20120;-66
2021/12/29 09:40:47;;;;;;;52.05;13.20;;;8.50;99.90;;;;;;4971907;28;20058;-66
2021/12/29 09:43:14;;;;;;;40.58;11.77;;;8.40;99.90;;;;;;4987912;28;20058;-66
2021/12/29 09:45:41;;;;;;;49.70;12.10;;;8.40;99.90;;;;;;4988410;28;20422;-66
2021/12/29 09:48:08;;;;;;;49.25;12.00;;;8.40;99.90;;;;;;4988897;28;20111;-66
2021/12/29 09:50:34;;;;;;;71.45;13.02;;;8.50;99.90;;;;;;4987052;28;20394;-66
2021/12/29 09:53:00;;;;;;;41.85;12.07;;;8.50;99.90;;;;;;4988118;28;20478;-66
2021/12/29 09:55:27;;;;;;;57.28;12.07;;;8.40;99.90;;;;;;4987236;28;20467;-67
2021/12/29 09:57:56;;;;;;;71.70;12.48;;;8.40;99.90;;;;;;4988471;28;20097;-66
2021/12/29 10:00:37;;;;;;;44.85;13.68;;;8.50;99.90;;;;;;4987918;28;20088;-66
2021/12/29 10:03:05;;;;;;;52.95;12.85;;;8.50;99.90;;;;;;4987399;28;20042;-67
2021/12/29 10:05:33;;;;;;;45.50;12.95;;;8.50;99.90;;;;;;4987466;28;20054;-67
2021/12/29 10:08:06;;;;;;;40.63;12.80;;;8.50;99.90;;;;;;4986394;28;20039;-67
2021/12/29 10:10:34;;;;;;;44.20;13.20;;;8.50;99.90;;;;;;4970075;28;20990;-68
2021/12/29 10:13:00;;;;;;;38.67;10.98;;;9.20;99.90;;;;;;4989689;28;20376;-69
2021/12/29 10:15:29;;;;;;;35.30;12.68;;;8.50;99.90;;;;;;4987534;28;20046;-68
2021/12/29 10:18:11;;;;;;;27.58;11.27;;;8.50;99.90;;;;;;4991562;28;20053;-68
2021/12/29 10:20:50;;;;;;;21.58;10.55;;;8.60;99.90;;;;;;4989852;28;20054;-68
2021/12/29 10:23:26;;;;;;;25.83;11.60;;;8.50;99.90;;;;;;4990314;28;20061;-68
2021/12/29 10:25:53;;;;;;;22.15;11.52;;;8.60;99.90;;;;;;4990298;28;20046;-74
2021/12/29 10:28:24;;;;;;;26.92;10.63;;;8.60;99.90;;;;;;4987734;28;20451;-68
2021/12/29 10:30:57;;;;;;;27.48;11.02;;;8.70;99.90;;;;;;4988260;28;20347;-68
2021/12/29 10:33:23;;;;;;;24.73;11.57;;;8.70;99.90;;;;;;4990503;28;20088;-68
2021/12/29 10:35:48;;;;;;;22.02;10.25;;;8.70;99.90;;;;;;4990036;28;20046;-68
2021/12/29 10:38:19;;;;;;;25.00;10.70;;;8.70;99.90;;;;;;4989134;28;20047;-68
2021/12/29 10:40:45;;;;;;;23.65;11.15;;;8.70;99.90;;;;;;4974149;28;20428;-71
2021/12/29 10:43:12;;;;;;;23.63;10.38;;;9.30;99.90;;;;;;4990232;28;20061;-69
2021/12/29 10:45:42;;;;;;;20.02;10.70;;;8.70;99.90;;;;;;4989361;28;20050;-67
2021/12/29 10:48:21;;;;;;;20.60;9.57;;;8.70;99.90;;;;;;4991694;28;20089;-67
2021/12/29 10:51:17;;;;;;;25.02;11.32;;;8.70;99.90;;;;;;4989631;28;20046;-66
2021/12/29 10:53:43;;;;;;;21.73;10.52;;;9.20;99.90;;;;;;4980667;28;20059;-67
2021/12/29 10:56:20;;;;;;;18.00;9.88;;;8.90;99.90;;;;;;4990157;28;20053;-67
2021/12/29 10:58:46;;;;;;;18.38;9.30;;;8.90;99.90;;;;;;4985726;28;20047;-67
2021/12/29 11:01:13;;;;;;;21.10;9.60;;;8.90;99.90;;;;;;4985876;28;20463;-67
2021/12/29 11:03:46;;;;;;;21.00;9.95;;;8.90;99.90;;;;;;4971956;28;20042;-67
2021/12/29 11:06:16;;;;;;;21.58;9.38;;;8.90;99.90;;;;;;4969395;28;20057;-68
2021/12/29 11:08:47;;;;;;;20.08;9.38;;;9.60;99.90;;;;;;4972243;28;20123;-67
2021/12/29 11:11:14;;;;;;;18.48;9.55;;;8.90;99.90;;;;;;4972145;28;20447;-69
2021/12/29 11:13:41;;;;;;;20.10;9.07;;;8.90;99.90;;;;;;4986009;28;20065;-68
2021/12/29 11:16:07;;;;;;;19.13;8.77;;;8.90;99.90;;;;;;4990457;28;20097;-67
2021/12/29 11:18:49;;;;;;;15.95;8.32;;;8.90;99.90;;;;;;4989977;28;20085;-67
2021/12/29 11:21:27;;;;;;;17.30;8.57;;;8.90;99.90;;;;;;4988940;28;20453;-67
2021/12/29 11:23:53;;;;;;;21.08;9.65;;;8.90;99.90;;;;;;4993379;28;20050;-66
2021/12/29 11:26:33;;;;;;;20.95;9.27;;;8.90;99.90;;;;;;4992720;28;20062;-67
2021/12/29 11:29:08;;;;;;;20.50;8.70;;;8.90;99.90;;;;;;4972597;28;20133;-67
2021/12/29 11:31:41;;;;;;;23.02;8.73;;;8.90;99.90;;;;;;4990717;28;20097;-67
2021/12/29 11:34:13;;;;;;;18.75;8.52;;;8.90;99.90;;;;;;4989798;28;20053;-67
2021/12/29 11:36:39;;;;;;;15.85;8.18;;;8.80;99.90;;;;;;4989653;28;20064;-67
2021/12/29 11:39:05;;;;;;;20.92;8.90;;;8.90;99.90;;;;;;4987963;28;20038;-67
2021/12/29 11:41:31;;;;;;;21.23;9.35;;;8.90;99.90;;;;;;4987300;28;20069;-67
2021/12/29 11:43:57;;;;;;;18.55;8.35;;;8.90;99.90;;;;;;4989632;28;20105;-69
2021/12/29 11:46:24;;;;;;;20.15;8.75;;;8.90;99.90;;;;;;4989039;28;20478;-67
2021/12/29 11:48:52;;;;;;;19.02;8.27;;;8.90;99.90;;;;;;4988642;28;20117;-68
2021/12/29 11:51:39;;;;;;;15.82;8.25;;;8.90;99.90;;;;;;4989747;28;20054;-67
2021/12/29 11:54:17;;;;;;;21.63;7.75;;;8.90;99.90;;;;;;4988495;28;20042;-67
2021/12/29 11:56:43;;;;;;;19.67;8.88;;;9.00;99.90;;;;;;4989827;28;20134;-67
2021/12/29 11:59:09;;;;;;;22.60;8.27;;;9.00;99.90;;;;;;4988117;28;20306;-67
2021/12/29 12:01:35;;;;;;;18.63;7.90;;;9.00;99.90;;;;;;4988274;28;20487;-67
2021/12/29 12:04:10;;;;;;;21.35;7.75;;;9.10;99.90;;;;;;4989351;28;20050;-67
2021/12/29 12:06:38;;;;;;;23.15;8.02;;;9.00;99.90;;;;;;4976700;28;20051;-67
2021/12/29 12:09:22;;;;;;;18.63;8.55;;;9.00;99.90;;;;;;4988474;28;20121;-67
2021/12/29 12:11:48;;;;;;;22.88;8.18;;;9.00;99.90;;;;;;4988914;28;20529;-76
2021/12/29 12:14:18;;;;;;;21.27;9.02;;;9.10;99.90;;;;;;4982872;28;20047;-76
2021/12/29 12:16:55;;;;;;;17.35;8.43;;;9.10;99.90;;;;;;4985102;28;20060;-75
2021/12/29 12:19:22;;;;;;;25.90;8.05;;;9.00;99.90;;;;;;4985193;28;20124;-75
2021/12/29 12:21:49;;;;;;;27.13;8.85;;;9.10;99.90;;;;;;4986158;28;20141;-75
2021/12/29 12:24:21;;;;;;;29.08;9.13;;;9.10;99.90;;;;;;4982211;28;20046;-75
2021/12/29 12:26:57;;;;;;;20.35;7.55;;;9.10;99.90;;;;;;4986088;28;20129;-75
2021/12/29 12:29:26;;;;;;;15.60;7.10;;;9.00;99.90;;;;;;4985074;28;20057;-75
2021/12/29 12:32:02;;;;;;;18.30;8.13;;;9.60;99.90;;;;;;4984573;28;20050;-75
2021/12/29 12:34:28;;;;;;;18.08;7.18;;;9.00;99.90;;;;;;4982219;28;20054;-75
2021/12/29 12:36:54;;;;;;;19.58;7.28;;;9.00;99.90;;;;;;4985548;28;20053;-74
2021/12/29 12:39:21;;;;;;;18.17;7.18;;;9.00;99.90;;;;;;4981741;28;20054;-74
2021/12/29 12:41:53;;;;;;;17.48;6.45;;;9.10;99.90;;;;;;4986653;28;20050;-73
2021/12/29 12:44:33;;;;;;;17.38;5.93;;;9.00;99.90;;;;;;4982971;28;20056;-74
2021/12/29 12:47:12;;;;;;;17.65;6.47;;;9.00;99.90;;;;;;4984139;28;20046;-74